Flight Track Log - Related Links

Times and Time Zones

All times are in EDT time to prevent confusion due to time zone crossing. See the N9305N flight status page for this flight to view local times or setup timezone preferences in your user account.

Time Position Orientation Groundspeed Altitude Reporting Facility
EDT Latitude Longitude Course Direction KTS MPH feet Rate Location/Type
Fri 11:12:12 AM 26.5736 -81.9011 93° East 78 90 1,600  Level Miami Center
Fri 11:13:14 AM 26.5897 -81.9231 309° West 82 94 2,200 581 Climbing Miami Center
Fri 11:14:16 AM 26.6050 -81.9436 310° West 83 96 2,800 435 Climbing Miami Center
Fri 11:15:18 AM 26.6219 -81.9669 309° West 92 106 3,100 145 Climbing Miami Center
Fri 11:16:00 AM 26.7078 -81.7017 80° East  Level Estimated
Fri 11:16:20 AM 26.6422 -81.9925 312° West 105 121 3,100  Level Miami Center
Fri 11:17:00 AM 26.7061 -81.6666 93° East  Level FlightAware Approximate
Fri 11:17:22 AM 26.6692 -82.0033 340° North 106 122 3,600  Level Miami Center
Fri 11:18:24 AM 26.6858 -81.9806 51° Northeast 96 110 4,200 581 Climbing Miami Center
Fri 11:19:26 AM 26.7000 -81.9542 59° Northeast 95 109 4,800 432 Climbing Miami Center
Fri 11:20:29 AM 26.7158 -81.9292 55° Northeast 98 113 5,100 48 Climbing Miami Center
Fri 11:21:31 AM 26.7219 -81.8914 80° East 114 131 4,900  Descending Miami Center
Fri 11:22:33 AM 26.7275 -81.8586 79° East 111 128 5,100 48 Climbing Miami Center
Fri 11:23:35 AM 26.7347 -81.8189 78° East 119 137 5,000 -48 Descending Miami Center
Fri 11:24:37 AM 26.7400 -81.7828 81° East 119 137 5,000  Level Miami Center
Fri 11:25:39 AM 26.7469 -81.7450 78° East 119 137 5,000  Level Miami Center
Fri 11:26:41 AM 26.7531 -81.7089 79° East 118 136 5,000  Level Miami Center
Fri 11:27:43 AM 26.7589 -81.6717 80° East 116 133 5,000  Level Miami Center
Fri 11:28:45 AM 26.7647 -81.6372 79° East 114 131 5,000  Level Miami Center
Fri 11:29:47 AM 26.7717 -81.5969 79° East 124 143 5,000  Level Miami Center
Fri 11:30:49 AM 26.7769 -81.5633 80° East 114 131 5,000 97 Level Miami Center
Fri 11:31:51 AM 26.7819 -81.5269 81° East 111 128 5,200  Climbing Miami Center
Fri 11:32:53 AM 26.7889 -81.4883 79° East 113 130 5,000 -97 Descending Miami Center
Fri 11:33:55 AM 26.7900 -81.4544 88° East 111 128 5,000  Level Miami Center
Fri 11:34:57 AM 26.7972 -81.4183 77° East 110 127 5,000  Level Miami Center
Fri 11:35:59 AM 26.8031 -81.3836 79° East 113 130 5,000  Level Miami Center
Fri 11:37:01 AM 26.8089 -81.3433 81° East 122 140 5,000  Level Miami Center
Fri 11:38:03 AM 26.8161 -81.3078 77° East 118 136 5,000  Level Miami Center
Fri 11:39:05 AM 26.8222 -81.2697 80° East 116 133 5,000  Level Miami Center
Fri 11:40:07 AM 26.8283 -81.2344 79° East 117 135 5,000  Level Miami Center
Fri 11:41:10 AM 26.8353 -81.1967 78° East 116 133 5,000  Level Miami Center
Fri 11:42:12 AM 26.8625 -81.1722 39° Northeast 126 145 5,000  Level Miami Center
Fri 11:43:13 AM 26.8903 -81.1453 41° Northeast 124 143 5,000  Level Miami Center
Fri 11:44:15 AM 26.9164 -81.1211 40° Northeast 123 142 5,000  Level Miami Center
Fri 11:45:17 AM 26.9447 -81.0944 40° Northeast 124 143 5,000  Level Miami Center
Fri 11:46:19 AM 26.9706 -81.0697 40° Northeast 123 142 5,000  Level Miami Center
Fri 11:47:21 AM 26.9986 -81.0439 39° Northeast 124 143 5,000  Level Miami Center
Fri 11:48:23 AM 27.0269 -81.0167 41° Northeast 125 144 5,000  Level Miami Center
Fri 11:49:25 AM 27.0556 -80.9900 40° Northeast 128 147 5,000  Level Miami Center
Fri 11:50:27 AM 27.0831 -80.9636 41° Northeast 127 146 5,000  Level Miami Center
Fri 11:51:29 AM 27.1092 -80.9383 41° Northeast 127 146 5,000  Level Miami Center
Fri 11:52:31 AM 27.1378 -80.9111 40° Northeast 129 148 5,000  Level Miami Center
Fri 11:53:33 AM 27.1667 -80.8839 40° Northeast 129 148 5,000  Level Miami Center
Fri 11:54:35 AM 27.1950 -80.8569 40° Northeast 129 148 5,000  Level Miami Center
Fri 11:55:37 AM 27.2228 -80.8317 39° Northeast 126 145 5,000  Level Miami Center
Fri 11:56:38 AM 27.2475 -80.8086 40° Northeast 113 130 5,000  Level Miami Center
Fri 11:57:40 AM 27.2733 -80.7831 41° Northeast 125 144 5,000  Level Miami Center
Fri 11:58:42 AM 27.3014 -80.7561 40° Northeast 126 145 5,000  Level Miami Center
Fri 11:59:44 AM 27.3297 -80.7297 40° Northeast 126 145 5,000  Level Miami Center
Fri 12:00:46 PM 27.3572 -80.7031 41° Northeast 126 145 5,000  Level Miami Center
Fri 12:01:48 PM 27.3847 -80.6769 40° Northeast 125 144 5,000  Level Miami Center
Fri 12:02:50 PM 27.4044 -80.6447 55° Northeast 124 143 5,000  Level Miami Center
Fri 12:03:51 PM 27.4200 -80.6122 62° Northeast 123 142 5,000  Level Miami Center
Fri 12:04:53 PM 27.4369 -80.5783 61° Northeast 123 142 5,000  Level Miami Center
Fri 12:05:55 PM 27.4544 -80.5433 61° Northeast 122 140 5,000  Level Miami Center
Fri 12:06:57 PM 27.4717 -80.5078 61° Northeast 122 140 5,000  Level Miami Center
Fri 12:07:59 PM 27.4894 -80.4722 61° Northeast 123 142 5,000  Level Miami Center
Fri 12:09:01 PM 27.5061 -80.4361 63° Northeast 123 142 5,000 -48 Level Miami Center
Fri 12:10:03 PM 27.5172 -80.4017 70° East 123 142 4,900 -341 Descending Miami Center
Fri 12:11:04 PM 27.5242 -80.3603 79° East 126 145 4,300 -537 Descending Miami Center
Fri 12:12:06 PM 27.5306 -80.3194 80° East 126 145 3,800 -629 Descending Miami Center
Fri 12:13:08 PM 27.5381 -80.2803 78° East 125 144 3,000 -774 Descending Miami Center
Fri 12:14:10 PM 27.5625 -80.2636 31° Northeast 115 132 2,200 -581 Descending Miami Center
Fri 12:15:12 PM 27.5911 -80.2692 350° North 107 123 1,800 -194 Descending Miami Center
Fri 12:16:14 PM 27.6064 -80.2928 306° West 99 114 1,800  Level Miami Center
Fri 12:17:16 PM 27.6175 -80.3225 293° West 99 114 1,800 -242 Level Miami Center
Fri 12:18:18 PM 27.6314 -80.3467 303° West 90 104 1,300 -435 Descending Miami Center
Fri 12:19:20 PM 27.6403 -80.3722 291° West 87 100 900 -293 Descending Miami Center
Fri 12:20:21 PM 27.6472 -80.3967 288° West 82 94 700 -49 Descending Miami Center
Fri 12:21:23 PM 27.6569 -80.4200 295° West 81 93 800 339 Climbing Miami Center
Fri 12:22:25 PM 27.6736 -80.4369 318° Northwest 81 93 1,400 629 Climbing Miami Center
Fri 12:23:27 PM 27.6922 -80.4592 313° West 90 104 2,100 629 Climbing Miami Center
Fri 12:24:29 PM 27.7044 -80.4831 300° West 87 100 2,700 629 Climbing Miami Center
Fri 12:25:31 PM 27.7156 -80.5058 299° West 84 97 3,400 581 Climbing Miami Center
Fri 12:26:33 PM 27.7256 -80.5317 294° West 85 98 3,900 339 Climbing Miami Center
Fri 12:27:35 PM 27.7367 -80.5561 297° West 88 101 4,100 339 Climbing Miami Center
Fri 12:28:37 PM 27.7472 -80.5822 295° West 87 100 4,600 484 Climbing Miami Center
Fri 12:29:39 PM 27.7586 -80.6092 296° West 88 101 5,100 242 Climbing Miami Center
Fri 12:30:41 PM 27.7722 -80.6383 298° West 99 114 5,100  Level Miami Center
Fri 12:31:42 PM 27.7794 -80.6711 284° West 105 121 5,100  Level Miami Center
Fri 12:32:44 PM 27.7897 -80.7056 289° West 106 122 5,100  Level Miami Center
Fri 12:33:46 PM 27.8022 -80.7372 294° West 107 123 5,100  Level Miami Center
Fri 12:34:48 PM 27.8139 -80.7664 294° West 106 122 5,100 -48 Level Miami Center
Fri 12:35:50 PM 27.8264 -80.7986 294° West 106 122 5,000 -48 Descending Miami Center
Fri 12:36:52 PM 27.8375 -80.8294 292° West 106 122 5,000  Level Miami Center
Fri 12:37:54 PM 27.8494 -80.8597 294° West 102 117 5,000  Level Miami Center
Fri 12:38:56 PM 27.8633 -80.8939 295° West 111 128 5,000  Level Miami Center
Fri 12:39:58 PM 27.8753 -80.9261 293° West 111 128 5,000  Level Miami Center
Fri 12:41:00 PM 27.8861 -80.9539 294° West 103 119 5,000  Level Miami Center
Fri 12:42:01 PM 27.9128 -80.9681 335° Northwest 111 128 5,000  Level Miami Center
Fri 12:43:03 PM 27.9464 -80.9747 350° North 114 131 5,000  Level Miami Center
Fri 12:44:05 PM 27.9803 -80.9811 351° North 117 135 5,000  Level Miami Center
Fri 12:45:07 PM 28.0133 -80.9872 351° North 117 135 5,000  Level Miami Center
Fri 12:46:09 PM 28.0464 -80.9931 351° North 117 135 5,000  Level Miami Center
Fri 12:47:11 PM 28.0778 -80.9989 351° North 117 135 5,000 -48 Level Miami Center
Fri 12:48:13 PM 28.1097 -81.0053 350° North 117 135 4,900 -435 Descending Miami Center
Fri 12:49:15 PM 28.1444 -81.0128 349° North 122 140 4,100 -774 Descending Miami Center
Fri 12:50:17 PM 28.1769 -81.0206 348° North 122 140 3,300 -532 Descending Miami Center
Fri 12:51:19 PM 28.2156 -81.0292 349° North 118 136 3,000 -145 Descending Miami Center
Fri 12:52:21 PM 28.2492 -81.0369 348° North 120 138 3,000  Level Miami Center
Fri 12:53:23 PM 28.2822 -81.0444 349° North 120 138 3,000  Level Miami Center
Fri 12:54:25 PM 28.3147 -81.0514 349° North 120 138 3,000  Level Miami Center
Fri 12:55:27 PM 28.3481 -81.0586 349° North 121 139 3,000  Level Miami Center
Fri 12:56:29 PM 28.3806 -81.0658 349° North 120 138 3,000  Level Miami Center
Fri 12:57:31 PM 28.4136 -81.0736 348° North 120 138 3,000  Level Miami Center
Fri 12:58:03 PM 28.4333 -81.0833 337° Northwest 114 131 3,000 -196 Level Orlando TRACON
Fri 12:59:03 PM 28.4667 -81.1000 336° Northwest 130 150 2,700 -143 Descending Orlando TRACON
Fri 01:00:09 PM 28.5000 -81.1167 336° Northwest 110 127 2,700  Level Orlando TRACON
Fri 01:01:03 PM 28.5333 -81.1167 360° North 108 124 2,700  Level Orlando TRACON
Fri 01:02:15 PM 28.5667 -81.1333 336° Northwest 108 124 2,700  Level Orlando TRACON
Fri 01:03:15 PM 28.6000 -81.1333 360° North 118 136 2,700  Level Orlando TRACON
Fri 01:04:15 PM 28.6167 -81.1500 319° Northwest 97 112 2,700  Level Orlando TRACON
Fri 01:05:16 PM 28.6000 -81.1667 221° Southwest 94 108 2,700 -496 Level Orlando TRACON
Fri 01:06:16 PM 28.6000 -81.2000 270° West 99 114 1,700 -571 Descending Orlando TRACON
Fri 01:07:22 PM 28.5833 -81.2333 240° Southwest 87 100 1,500 -150 Descending Orlando TRACON
Fri 01:08:16 PM 28.5667 -81.2500 221° Southwest 92 106 1,400 -316 Descending Orlando TRACON
Fri 01:09:16 PM 28.5667 -81.2833 270° West 115 132 900 -500 Descending Orlando TRACON
Fri 01:11:00 PM 28.5468 -81.2643 140° Southeast  Level Estimated
Fri 01:18:00 PM 28.4204 -81.1430 140° Southeast  Level Estimated
Fri 01:19:00 PM 28.4023 -81.1257 140° Southeast  Level Estimated
Fri 01:20:00 PM 28.3842 -81.1085 140° Southeast  Level Estimated
Fri 01:21:00 PM 28.3661 -81.0912 140° Southeast  Level Estimated

Login

Don't have an account? Register now (free) for customized features, flight alerts, and more!